Skip Navigation Links Skip Navigation Links

Current Weather

Gatwick Apt, London

For information only: do not use for flight planning or navigation.
Latest weather
Observation time Tuesday, September 28, 2021 10:20 AM BST
Local time Tuesday, September 28, 2021 11:00 AM BST
Flight conditions Marginal Visual Meteorological Conditions
Winds
Wind direction South (180°)
Winds variable from 150° to 230°
Wind speed 5 mph
Visibility 6.2 mi.
Present weather rain showers
Sky condition
Ceiling 2,900 ft. broken clouds
Cloud layer few clouds 1,200 ft.
Cloud layer scattered clouds 2,400 ft.
Cloud layer broken clouds 2,900 ft.
Temperature 59°F
Dewpoint 55°F
Altimeter 30.06 in.Hg
Derived measurements
Relative humidity 88%
Density altitude 48 ft.
METAR EGKK 280920Z 18004KT 150V230 9999 SHRA FEW012 SCT024 BKN029 15/13 Q1018 RERA

Settings

Location code

InnerDrive.Weather 4.0.6770.0 Release CLR 4.0.30319.42000
Copyright ©2018 Inner Drive Technology. All rights reserved. Portions Copyright ©1986-2018 David Braverman.

Find weather

Site navigation


Skip Navigation Links

Place info

Page info

PayPal - The safer, easier way to pay online!

Return home.

Copyright ©2021 Inner Drive Technology. Purveyors of fine, hand-crafted computer software. Page printed 2021-09-28T10:00:33 UTC.